Time;durP1;ratioP1;P1;durP2;ratioP2;P2;SDS_P1;SDS_P2;PMS_P1;PMS_P2;Temp;Humidity;BMP_temperature;BMP_pressure;BME280_temperature;BME280_humidity;BME280_pressure;Samples;Min_cycle;Max_cycle;Signal;HPM_P1;HPM_P2
2021/12/19 00:00:56;;;;;;;31.50;24.65;;;9.50;99.90;;;;;;2071775;28;20572;-71
2021/12/19 00:02:07;;;;;;;30.40;24.90;;;9.50;99.90;;;;;;2072254;28;20474;-71
2021/12/19 00:03:32;;;;;;;28.83;24.67;;;9.50;99.90;;;;;;2071801;28;20036;-71
2021/12/19 00:04:38;;;;;;;;;;;9.50;99.90;;;;;;2072352;28;20030;-71
2021/12/19 00:09:36;;;;;;;28.13;23.27;;;9.40;99.90;;;;;;2076525;28;20108;-71
2021/12/19 00:10:37;;;;;;;28.40;23.05;;;9.40;99.90;;;;;;2068284;28;20261;-71
2021/12/19 00:11:38;;;;;;;27.40;23.30;;;9.40;99.90;;;;;;2071931;28;20018;-71
2021/12/19 00:12:39;;;;;;;26.42;22.33;;;9.40;99.90;;;;;;2072529;28;20022;-71
2021/12/19 00:13:42;;;;;;;27.90;22.67;;;9.50;99.90;;;;;;2071400;28;20022;-71
2021/12/19 00:14:43;;;;;;;27.65;22.13;;;9.50;99.90;;;;;;2071450;28;20030;-71
2021/12/19 00:15:43;;;;;;;26.48;22.65;;;9.50;99.90;;;;;;2073309;28;20025;-71
2021/12/19 00:16:44;;;;;;;28.20;23.23;;;9.50;99.90;;;;;;2071090;28;21011;-71
2021/12/19 00:17:45;;;;;;;31.55;24.20;;;9.50;99.90;;;;;;2076811;28;20481;-71
2021/12/19 00:18:47;;;;;;;27.58;23.55;;;9.50;99.90;;;;;;2076832;28;20022;-71
2021/12/19 00:19:47;;;;;;;30.77;23.77;;;9.50;99.90;;;;;;2072187;28;20034;-71
2021/12/19 00:20:48;;;;;;;32.05;24.80;;;9.50;99.90;;;;;;2071854;28;20026;-71
2021/12/19 00:21:49;;;;;;;29.33;24.63;;;9.50;99.90;;;;;;2072082;28;20454;-71
2021/12/19 00:22:50;;;;;;;27.75;23.17;;;9.50;99.90;;;;;;2072480;28;20026;-71
2021/12/19 00:23:52;;;;;;;32.50;23.33;;;9.50;99.90;;;;;;2071957;28;20053;-71
2021/12/19 00:24:52;;;;;;;28.42;23.70;;;9.50;99.90;;;;;;2072186;28;20101;-71
2021/12/19 00:25:54;;;;;;;27.88;23.42;;;9.50;99.90;;;;;;2071216;28;20026;-71
2021/12/19 00:26:54;;;;;;;30.45;24.05;;;9.50;99.90;;;;;;2071511;28;20033;-71
2021/12/19 00:27:55;;;;;;;27.25;23.52;;;9.50;99.90;;;;;;2072211;28;20125;-71
2021/12/19 00:28:56;;;;;;;27.20;23.50;;;9.50;99.90;;;;;;2071460;28;20080;-72
2021/12/19 00:29:56;;;;;;;30.55;24.30;;;9.40;99.90;;;;;;2068477;28;20802;-71
2021/12/19 00:30:57;;;;;;;32.20;24.85;;;9.50;99.90;;;;;;2063032;28;20038;-71
2021/12/19 00:31:57;;;;;;;29.00;24.35;;;9.50;99.90;;;;;;2070969;28;20041;-71
2021/12/19 00:32:59;;;;;;;28.85;24.30;;;9.50;99.90;;;;;;2073212;28;20022;-71
2021/12/19 00:34:00;;;;;;;30.95;23.90;;;9.50;99.90;;;;;;2077809;28;20661;-71
2021/12/19 00:35:00;;;;;;;33.30;24.13;;;9.40;99.90;;;;;;2071988;28;20651;-71
2021/12/19 00:36:01;;;;;;;29.80;23.52;;;9.40;99.90;;;;;;2079471;28;20033;-71
2021/12/19 00:37:02;;;;;;;31.60;25.38;;;9.40;99.90;;;;;;2071843;28;20480;-71
2021/12/19 00:38:03;;;;;;;27.08;22.92;;;9.40;99.90;;;;;;2077816;28;20037;-71
2021/12/19 00:39:04;;;;;;;28.00;23.05;;;9.40;99.90;;;;;;2070611;28;20870;-71
2021/12/19 00:40:05;;;;;;;28.75;23.35;;;9.40;99.90;;;;;;2070968;28;20036;-71
2021/12/19 00:41:06;;;;;;;28.23;22.33;;;9.40;99.90;;;;;;2079318;28;20060;-71
2021/12/19 00:42:08;;;;;;;28.27;22.27;;;9.30;99.90;;;;;;2070768;28;20026;-71
2021/12/19 00:43:21;;;;;;;29.30;22.58;;;9.30;99.90;;;;;;2071371;28;20379;-71
2021/12/19 00:44:24;;;;;;;26.52;21.35;;;9.30;99.90;;;;;;2071199;28;20030;-72
2021/12/19 00:45:31;;;;;;;28.45;22.38;;;9.30;99.90;;;;;;2071024;28;20029;-71
2021/12/19 00:46:36;;;;;;;24.33;21.13;;;9.30;99.90;;;;;;2071491;28;20018;-71
2021/12/19 00:47:37;;;;;;;24.75;20.80;;;9.30;99.90;;;;;;2072210;28;20023;-71
2021/12/19 00:48:42;;;;;;;25.45;20.17;;;9.30;99.90;;;;;;2071067;28;20032;-71
2021/12/19 00:49:42;;;;;;;24.15;18.15;;;9.30;99.90;;;;;;2072039;28;20026;-71
2021/12/19 00:50:43;;;;;;;19.63;16.80;;;9.30;99.90;;;;;;2070849;28;20037;-71
2021/12/19 00:51:44;;;;;;;16.48;14.40;;;9.30;99.90;;;;;;2071384;28;20101;-71
2021/12/19 00:52:46;;;;;;;16.77;13.90;;;9.30;99.90;;;;;;2071830;28;20037;-71
2021/12/19 00:53:46;;;;;;;13.68;12.13;;;9.30;99.90;;;;;;2071217;28;20552;-71
2021/12/19 00:54:47;;;;;;;16.98;13.73;;;9.30;99.90;;;;;;2069666;28;20509;-71
2021/12/19 00:55:48;;;;;;;14.63;13.10;;;9.30;99.90;;;;;;2075596;28;20033;-71
2021/12/19 00:56:49;;;;;;;16.52;12.52;;;9.30;99.90;;;;;;2077728;28;20408;-71
2021/12/19 00:57:50;;;;;;;15.13;11.35;;;9.30;99.90;;;;;;2074153;28;20485;-72
2021/12/19 00:58:51;;;;;;;14.93;11.45;;;9.30;99.90;;;;;;2071404;28;20084;-71
2021/12/19 00:59:52;;;;;;;12.75;10.75;;;9.30;99.90;;;;;;2067936;28;20034;-71
2021/12/19 01:00:52;;;;;;;14.88;11.80;;;9.30;99.90;;;;;;2070720;28;20036;-71
2021/12/19 01:01:53;;;;;;;14.02;11.35;;;9.30;99.90;;;;;;2079462;28;20052;-71
2021/12/19 01:02:58;;;;;;;16.42;11.90;;;9.30;99.90;;;;;;2087242;28;20108;-71
2021/12/19 01:03:59;;;;;;;11.65;10.40;;;9.30;99.90;;;;;;2071648;28;20026;-71
2021/12/19 01:05:01;;;;;;;13.77;11.73;;;9.30;99.90;;;;;;2071427;28;20053;-71
2021/12/19 01:06:02;;;;;;;15.13;11.70;;;9.30;99.90;;;;;;2071630;28;20367;-71
2021/12/19 01:07:03;;;;;;;14.32;11.90;;;9.30;99.90;;;;;;2071139;28;20037;-71
2021/12/19 01:08:05;;;;;;;14.90;12.38;;;9.30;99.90;;;;;;2071060;28;20978;-71
2021/12/19 01:09:06;;;;;;;14.85;13.02;;;9.30;99.90;;;;;;2071300;28;20069;-71
2021/12/19 01:10:08;;;;;;;19.17;13.10;;;9.30;99.90;;;;;;2066955;28;20371;-71
2021/12/19 01:11:09;;;;;;;14.63;12.90;;;9.30;99.90;;;;;;2072041;28;20048;-71
2021/12/19 01:12:10;;;;;;;17.42;13.32;;;9.30;99.90;;;;;;2071408;28;20117;-71
2021/12/19 01:13:12;;;;;;;17.17;13.43;;;9.30;99.90;;;;;;2071841;28;20030;-71
2021/12/19 01:14:13;;;;;;;16.35;13.70;;;9.30;99.90;;;;;;2071167;28;20654;-71
2021/12/19 01:15:16;;;;;;;16.17;13.13;;;9.30;99.90;;;;;;2071681;28;20037;-71
2021/12/19 01:16:17;;;;;;;18.38;13.30;;;9.30;99.90;;;;;;2063038;28;20018;-71
2021/12/19 01:17:17;;;;;;;16.70;13.75;;;9.40;99.90;;;;;;2066983;28;20777;-71
2021/12/19 01:18:18;;;;;;;16.20;13.50;;;9.40;99.90;;;;;;2071040;28;20037;-71
2021/12/19 01:19:19;;;;;;;18.10;14.10;;;9.40;99.90;;;;;;2071782;28;20509;-71
2021/12/19 01:20:22;;;;;;;16.15;13.93;;;9.40;99.90;;;;;;2071610;28;20041;-71
2021/12/19 01:21:23;;;;;;;16.30;14.25;;;9.40;99.90;;;;;;2071541;28;20022;-71
2021/12/19 01:22:23;;;;;;;17.45;14.52;;;9.40;99.90;;;;;;2071786;28;20488;-71
2021/12/19 01:23:24;;;;;;;19.70;15.65;;;9.40;99.90;;;;;;2071718;28;20022;-71
2021/12/19 01:24:24;;;;;;;18.30;14.80;;;9.40;99.90;;;;;;2068548;28;20084;-71
2021/12/19 01:25:25;;;;;;;19.38;15.00;;;9.40;99.90;;;;;;2067688;28;20032;-71
2021/12/19 01:26:26;;;;;;;21.48;15.80;;;9.40;99.90;;;;;;2067949;28;20443;-72
2021/12/19 01:27:26;;;;;;;18.73;16.60;;;9.50;99.90;;;;;;2070918;28;20017;-71
2021/12/19 01:28:27;;;;;;;19.08;16.10;;;9.50;99.90;;;;;;2070205;28;20033;-71
2021/12/19 01:29:27;;;;;;;21.75;16.80;;;9.50;99.90;;;;;;2071003;28;20485;-71
2021/12/19 01:30:28;;;;;;;26.02;16.73;;;9.50;99.90;;;;;;2067824;28;20014;-71
2021/12/19 01:31:29;;;;;;;18.02;15.60;;;9.40;99.90;;;;;;2071639;28;20033;-71
2021/12/19 01:32:29;;;;;;;19.98;17.17;;;9.50;99.90;;;;;;2071630;28;20018;-71
2021/12/19 01:33:30;;;;;;;19.48;16.92;;;9.50;99.90;;;;;;2071247;28;20069;-71
2021/12/19 01:34:31;;;;;;;24.50;17.65;;;9.50;99.90;;;;;;2071061;28;20382;-71
2021/12/19 01:35:31;;;;;;;22.30;17.58;;;9.50;99.90;;;;;;2070358;28;20018;-71
2021/12/19 01:36:32;;;;;;;25.58;18.17;;;9.50;99.90;;;;;;2070625;28;20049;-71
2021/12/19 01:37:33;;;;;;;23.20;18.15;;;9.40;99.90;;;;;;2071246;28;20462;-71
2021/12/19 01:38:33;;;;;;;23.52;18.35;;;9.40;99.90;;;;;;2070515;28;20014;-71
2021/12/19 01:39:34;;;;;;;23.35;18.27;;;9.40;99.90;;;;;;2071771;28;20427;-71
2021/12/19 01:40:35;;;;;;;25.23;18.52;;;9.40;99.90;;;;;;2071386;28;20076;-71
2021/12/19 01:41:44;;;;;;;24.13;19.42;;;9.40;99.90;;;;;;2078376;28;20049;-71
2021/12/19 01:42:47;;;;;;;27.33;20.10;;;9.40;99.90;;;;;;2081538;28;20535;-71
2021/12/19 01:43:48;;;;;;;26.33;20.10;;;9.40;99.90;;;;;;2071582;28;20068;-72
2021/12/19 01:44:48;;;;;;;26.98;21.70;;;9.40;99.90;;;;;;2071507;28;20033;-71
2021/12/19 01:45:49;;;;;;;27.60;21.02;;;9.40;99.90;;;;;;2079320;28;20053;-71
2021/12/19 01:46:50;;;;;;;25.95;21.70;;;9.40;99.90;;;;;;2070418;28;20026;-71
2021/12/19 01:47:51;;;;;;;29.83;22.52;;;9.40;99.90;;;;;;2070360;28;20045;-71
2021/12/19 01:48:51;;;;;;;32.33;22.55;;;9.40;99.90;;;;;;2071044;28;20033;-72
2021/12/19 01:49:52;;;;;;;29.65;23.67;;;9.40;99.90;;;;;;2071618;28;20399;-72
2021/12/19 01:50:54;;;;;;;31.13;24.58;;;9.40;99.90;;;;;;2071528;28;20030;-72
2021/12/19 01:51:55;;;;;;;30.60;24.02;;;9.40;99.90;;;;;;2070836;28;20025;-72
2021/12/19 01:52:56;;;;;;;33.08;25.23;;;9.40;99.90;;;;;;2071202;28;20104;-72
2021/12/19 01:53:56;;;;;;;30.85;24.38;;;9.40;99.90;;;;;;2078815;28;20025;-72
2021/12/19 01:54:58;;;;;;;31.10;24.65;;;9.40;99.90;;;;;;2079043;28;20055;-72
2021/12/19 01:55:59;;;;;;;33.97;25.95;;;9.40;99.90;;;;;;2071330;28;20022;-72
2021/12/19 01:56:59;;;;;;;34.00;26.48;;;9.40;99.90;;;;;;2071213;28;20022;-72
2021/12/19 01:58:01;;;;;;;33.47;25.70;;;9.40;99.90;;;;;;2071253;28;20037;-72
2021/12/19 01:59:01;;;;;;;30.05;25.92;;;9.30;99.90;;;;;;2070250;28;20417;-71
2021/12/19 02:00:06;;;;;;;32.65;25.88;;;9.30;99.90;;;;;;2067372;28;20045;-72
2021/12/19 02:01:07;;;;;;;32.08;24.77;;;9.30;99.90;;;;;;2071629;28;20014;-72
2021/12/19 02:02:07;;;;;;;30.55;24.45;;;9.30;99.90;;;;;;2071003;28;20026;-72
2021/12/19 02:03:10;;;;;;;26.27;23.27;;;9.30;99.90;;;;;;2071237;28;20026;-72
2021/12/19 02:04:12;;;;;;;30.17;23.83;;;9.30;99.90;;;;;;2071379;28;20540;-72
2021/12/19 02:05:12;;;;;;;32.58;24.35;;;9.40;99.90;;;;;;2071593;28;20100;-72
2021/12/19 02:06:13;;;;;;;28.95;23.02;;;9.40;99.90;;;;;;2070494;28;20075;-72
2021/12/19 02:07:14;;;;;;;28.77;23.00;;;9.40;99.90;;;;;;2070884;28;20057;-72
2021/12/19 02:08:16;;;;;;;25.10;21.55;;;9.40;99.90;;;;;;2070178;28;20026;-72
2021/12/19 02:09:17;;;;;;;28.25;22.13;;;9.40;99.90;;;;;;2070690;28;20494;-72
2021/12/19 02:10:23;;;;;;;29.92;22.45;;;9.40;99.90;;;;;;2066946;28;20038;-72
2021/12/19 02:11:24;;;;;;;27.40;22.52;;;9.30;99.90;;;;;;2070561;28;20022;-72
2021/12/19 02:12:25;;;;;;;29.67;23.10;;;9.40;99.90;;;;;;2070167;28;20057;-72
2021/12/19 02:13:25;;;;;;;28.15;21.45;;;9.40;99.90;;;;;;2070873;28;20117;-72
2021/12/19 02:14:26;;;;;;;25.42;20.60;;;9.40;99.90;;;;;;2070635;28;20033;-72
2021/12/19 02:15:29;;;;;;;28.15;21.83;;;9.40;99.90;;;;;;2070792;28;20441;-72
2021/12/19 02:16:30;;;;;;;28.33;20.75;;;9.40;99.90;;;;;;2070510;28;20026;-72
2021/12/19 02:17:31;;;;;;;26.05;20.85;;;9.40;99.90;;;;;;2071288;28;20057;-72
2021/12/19 02:18:31;;;;;;;25.33;19.08;;;9.40;99.90;;;;;;2070078;28;20023;-72
2021/12/19 02:19:33;;;;;;;26.55;20.15;;;9.40;99.90;;;;;;2071456;28;20018;-72
2021/12/19 02:20:41;;;;;;;29.25;21.88;;;9.40;99.90;;;;;;2071294;28;20014;-71
2021/12/19 02:21:41;;;;;;;24.02;19.50;;;9.40;99.90;;;;;;2066221;28;20105;-72
2021/12/19 02:22:43;;;;;;;27.23;20.05;;;9.40;99.90;;;;;;2073650;28;20450;-72
2021/12/19 02:23:44;;;;;;;22.58;19.65;;;9.40;99.90;;;;;;2074654;28;20382;-72
2021/12/19 02:24:44;;;;;;;26.67;21.30;;;9.40;99.90;;;;;;2074312;28;20048;-72
2021/12/19 02:25:45;;;;;;;27.73;21.42;;;9.30;99.90;;;;;;2070342;28;20077;-72
2021/12/19 02:26:47;;;;;;;26.10;21.25;;;9.30;99.90;;;;;;2062123;28;20497;-72
2021/12/19 02:27:47;;;;;;;25.73;20.35;;;9.30;99.90;;;;;;2062326;28;20031;-72
2021/12/19 02:28:48;;;;;;;23.38;19.83;;;9.30;99.90;;;;;;2075203;28;20033;-72
2021/12/19 02:29:48;;;;;;;26.98;20.73;;;9.30;99.90;;;;;;2076524;28;20042;-72
2021/12/19 02:30:49;;;;;;;24.17;19.90;;;9.30;99.90;;;;;;2075069;28;20033;-72
2021/12/19 02:31:50;;;;;;;24.80;19.70;;;9.30;99.90;;;;;;2072834;28;20071;-72
2021/12/19 02:32:51;;;;;;;23.67;19.73;;;9.20;99.90;;;;;;2070306;28;20044;-72
2021/12/19 02:34:04;;;;;;;21.95;19.60;;;9.20;99.90;;;;;;2070749;28;20042;-72
2021/12/19 02:35:09;;;;;;;21.63;19.00;;;9.20;99.90;;;;;;2071739;28;20963;-72
2021/12/19 02:48:30;;;;;;;14.57;12.35;;;8.90;99.90;;;;;;2070347;28;20029;-72
2021/12/19 02:49:32;;;;;;;13.57;11.93;;;8.90;99.90;;;;;;2070550;28;20026;-72
2021/12/19 02:50:33;;;;;;;14.00;11.85;;;8.90;99.90;;;;;;2070749;28;20025;-72
2021/12/19 02:51:34;;;;;;;13.60;12.27;;;9.00;99.90;;;;;;2071002;28;20037;-72
2021/12/19 02:52:35;;;;;;;12.60;11.07;;;9.00;99.90;;;;;;2066928;28;20080;-72
2021/12/19 02:53:38;;;;;;;12.07;10.88;;;9.00;99.90;;;;;;2076198;28;20076;-72
2021/12/19 02:54:39;;;;;;;11.57;10.48;;;9.00;99.90;;;;;;2073780;28;20025;-72
2021/12/19 02:55:43;;;;;;;11.43;10.25;;;9.00;99.90;;;;;;2073969;28;20030;-72
2021/12/19 02:56:44;;;;;;;11.13;10.02;;;9.00;99.90;;;;;;2071693;28;20014;-72
2021/12/19 02:57:47;;;;;;;10.20;9.07;;;9.00;99.90;;;;;;2075418;28;20038;-72
2021/12/19 02:58:47;;;;;;;9.20;8.30;;;9.00;99.90;;;;;;2068637;28;20036;-72
2021/12/19 02:59:48;;;;;;;8.80;8.00;;;9.00;99.90;;;;;;2070044;28;20045;-72
2021/12/19 03:00:49;;;;;;;9.18;8.30;;;9.00;99.90;;;;;;2074546;28;20466;-72
2021/12/19 03:01:49;;;;;;;8.75;7.85;;;9.00;99.90;;;;;;2073950;28;20038;-72
2021/12/19 03:02:50;;;;;;;8.35;7.55;;;9.00;99.90;;;;;;2068949;28;20023;-72
2021/12/19 03:03:51;;;;;;;8.15;7.35;;;9.00;99.90;;;;;;2075866;28;20049;-72
2021/12/19 03:04:57;;;;;;;6.80;6.13;;;9.10;99.90;;;;;;2071106;28;20022;-72
2021/12/19 03:05:58;;;;;;;6.30;5.70;;;9.10;99.90;;;;;;2073821;28;20632;-72
2021/12/19 03:06:58;;;;;;;6.25;5.65;;;9.00;99.90;;;;;;2079727;28;20393;-72
2021/12/19 03:08:01;;;;;;;5.55;5.05;;;9.00;99.90;;;;;;2075824;28;20038;-72
2021/12/19 03:09:07;;;;;;;7.18;5.95;;;9.00;99.90;;;;;;2076585;28;20029;-72
2021/12/19 03:11:02;;;;;;;6.72;6.00;;;9.00;99.90;;;;;;2068835;28;20023;-72
2021/12/19 03:18:05;;;;;;;5.35;4.85;;;8.90;99.90;;;;;;2064141;28;20506;-72
2021/12/19 03:19:06;;;;;;;6.45;5.03;;;8.90;99.90;;;;;;2068105;28;20455;-72
2021/12/19 03:20:07;;;;;;;6.25;5.45;;;8.90;99.90;;;;;;2079961;28;20413;-72
2021/12/19 03:21:11;;;;;;;6.38;5.80;;;8.90;99.90;;;;;;2080431;28;20030;-72
2021/12/19 03:22:12;;;;;;;6.40;5.60;;;8.90;99.90;;;;;;2071952;28;20018;-72
2021/12/19 03:23:14;;;;;;;6.30;5.13;;;8.90;99.90;;;;;;2072734;28;20061;-72
2021/12/19 03:24:15;;;;;;;7.43;5.88;;;8.90;99.90;;;;;;2072403;28;20030;-72
2021/12/19 03:25:16;;;;;;;7.15;6.30;;;8.80;99.90;;;;;;2072354;28;20041;-72
2021/12/19 03:26:16;;;;;;;6.60;5.78;;;8.90;99.90;;;;;;2072463;28;20022;-72
2021/12/19 03:27:17;;;;;;;6.82;6.20;;;8.90;99.90;;;;;;2072464;28;20025;-72
2021/12/19 03:28:18;;;;;;;7.50;5.93;;;8.90;99.90;;;;;;2072153;28;20030;-72
2021/12/19 03:29:18;;;;;;;6.93;5.70;;;8.90;99.90;;;;;;2072065;28;20022;-72
2021/12/19 03:30:20;;;;;;;5.88;5.35;;;8.90;99.90;;;;;;2070926;28;20022;-72
2021/12/19 03:31:20;;;;;;;6.82;6.13;;;8.90;99.90;;;;;;2078334;28;20061;-72
2021/12/19 03:32:23;;;;;;;6.38;5.78;;;8.90;99.90;;;;;;2074468;28;20037;-72
2021/12/19 03:33:24;;;;;;;7.00;6.30;;;8.90;99.90;;;;;;2077205;28;20038;-72
2021/12/19 03:34:24;;;;;;;7.82;6.60;;;8.90;99.90;;;;;;2072521;28;20056;-72
2021/12/19 03:35:25;;;;;;;8.07;6.75;;;8.90;99.90;;;;;;2072484;28;20024;-72
2021/12/19 03:36:27;;;;;;;6.28;5.57;;;8.90;99.90;;;;;;2072471;28;20022;-72
2021/12/19 03:37:28;;;;;;;6.50;5.90;;;8.90;99.90;;;;;;2072146;28;20030;-72
2021/12/19 03:38:29;;;;;;;7.15;6.45;;;8.90;99.90;;;;;;2071602;28;20018;-72
2021/12/19 03:39:55;;;;;;;6.70;6.00;;;8.90;99.90;;;;;;2072180;28;20049;-72
2021/12/19 03:41:19;;;;;;;6.85;6.15;;;8.90;99.90;;;;;;2073724;28;20053;-72
2021/12/19 03:42:19;;;;;;;7.75;6.30;;;8.90;99.90;;;;;;2073786;28;20439;-72
2021/12/19 03:43:22;;;;;;;6.35;5.75;;;8.90;99.90;;;;;;2073033;28;20112;-72
2021/12/19 03:44:23;;;;;;;6.82;6.13;;;8.90;99.90;;;;;;2073265;28;20074;-72
2021/12/19 03:45:24;;;;;;;6.22;5.68;;;8.90;99.90;;;;;;2073778;28;20030;-72
2021/12/19 03:46:25;;;;;;;6.82;5.40;;;8.90;99.90;;;;;;2073877;28;20030;-72
2021/12/19 03:47:26;;;;;;;7.57;6.50;;;8.90;99.90;;;;;;2073023;28;20022;-72
2021/12/19 03:48:27;;;;;;;7.32;6.38;;;8.90;99.90;;;;;;2072173;28;20108;-72
2021/12/19 03:49:27;;;;;;;7.90;6.80;;;9.00;99.90;;;;;;2073142;28;20025;-72
2021/12/19 03:50:30;;;;;;;8.40;6.20;;;8.90;99.90;;;;;;2073883;28;20043;-72
2021/12/19 03:51:30;;;;;;;7.05;6.35;;;9.00;99.90;;;;;;2073613;28;20018;-72
2021/12/19 03:52:32;;;;;;;8.45;7.47;;;9.00;99.90;;;;;;2069820;28;20101;-72
2021/12/19 03:53:32;;;;;;;8.02;7.22;;;9.00;99.90;;;;;;2071955;28;20022;-73
2021/12/19 03:54:33;;;;;;;7.90;7.00;;;9.00;99.90;;;;;;2065055;28;20033;-72
2021/12/19 03:55:34;;;;;;;8.30;7.38;;;9.00;99.90;;;;;;2072794;28;20034;-72
2021/12/19 03:56:37;;;;;;;7.60;6.75;;;9.00;99.90;;;;;;2073187;28;20014;-72
2021/12/19 03:57:37;;;;;;;7.38;6.20;;;9.00;99.90;;;;;;2072928;28;20037;-72
2021/12/19 03:58:38;;;;;;;8.80;6.75;;;9.00;99.90;;;;;;2072557;28;20105;-72
2021/12/19 03:59:41;;;;;;;8.15;7.28;;;9.00;99.90;;;;;;2073465;28;20022;-72
2021/12/19 04:00:43;;;;;;;8.00;7.15;;;9.00;99.90;;;;;;2074550;28;20455;-72
2021/12/19 04:01:48;;;;;;;6.53;5.88;;;9.00;99.90;;;;;;2076912;28;20024;-72
2021/12/19 04:02:49;;;;;;;7.80;7.03;;;9.00;99.90;;;;;;2072816;28;20018;-72
2021/12/19 04:03:50;;;;;;;7.93;7.07;;;9.00;99.90;;;;;;2072096;28;20352;-72
2021/12/19 04:04:52;;;;;;;7.35;6.65;;;9.00;99.90;;;;;;2065113;28;20049;-72
2021/12/19 04:05:53;;;;;;;7.55;6.75;;;9.00;99.90;;;;;;2068198;28;20504;-72
2021/12/19 04:06:54;;;;;;;8.25;7.25;;;9.00;99.90;;;;;;2072654;28;20104;-72
2021/12/19 04:07:55;;;;;;;7.68;6.88;;;9.00;99.90;;;;;;2072641;28;20475;-72
2021/12/19 04:08:56;;;;;;;7.40;6.40;;;9.00;99.90;;;;;;2072130;28;21029;-72
2021/12/19 04:09:57;;;;;;;7.38;6.65;;;9.00;99.90;;;;;;2070142;28;20105;-72
2021/12/19 04:10:57;;;;;;;8.10;7.30;;;9.00;99.90;;;;;;2072188;28;20030;-71
2021/12/19 04:11:58;;;;;;;7.47;6.75;;;9.00;99.90;;;;;;2072046;28;20084;-72
2021/12/19 04:12:58;;;;;;;7.78;6.75;;;9.00;99.90;;;;;;2072682;28;20427;-72
2021/12/19 04:13:59;;;;;;;8.07;6.55;;;9.00;99.90;;;;;;2071952;28;20029;-72
2021/12/19 04:14:59;;;;;;;9.05;7.80;;;9.00;99.90;;;;;;2072029;28;20070;-72
2021/12/19 04:16:00;;;;;;;7.85;6.82;;;9.00;99.90;;;;;;2072223;28;20018;-71
2021/12/19 04:17:01;;;;;;;8.57;7.68;;;9.10;99.90;;;;;;2072057;28;20021;-72
2021/12/19 04:18:02;;;;;;;8.57;7.65;;;9.00;99.90;;;;;;2072398;28;20053;-72
2021/12/19 04:19:02;;;;;;;8.52;7.57;;;9.00;99.90;;;;;;2071590;28;20561;-72
2021/12/19 04:20:04;;;;;;;9.10;7.50;;;9.00;99.90;;;;;;2072347;28;20038;-72
2021/12/19 04:21:04;;;;;;;7.72;6.93;;;9.10;99.90;;;;;;2072281;28;20056;-72
2021/12/19 04:22:05;;;;;;;7.90;7.10;;;9.00;99.90;;;;;;2075400;28;20481;-72
2021/12/19 04:23:06;;;;;;;8.25;6.65;;;9.00;99.90;;;;;;2081325;28;20033;-72
2021/12/19 04:24:06;;;;;;;8.52;7.63;;;9.00;99.90;;;;;;2073239;28;20054;-72
2021/12/19 04:25:08;;;;;;;9.10;7.35;;;9.00;99.90;;;;;;2078283;28;20045;-72
2021/12/19 04:26:08;;;;;;;9.20;7.88;;;9.00;99.90;;;;;;2072118;28;20546;-72
2021/12/19 04:27:09;;;;;;;8.77;7.88;;;9.00;99.90;;;;;;2071522;28;21413;-72
2021/12/19 04:28:10;;;;;;;9.27;8.30;;;9.00;99.90;;;;;;2071771;28;20120;-72
2021/12/19 04:29:11;;;;;;;9.82;8.35;;;9.00;99.90;;;;;;2070558;28;20036;-72
2021/12/19 04:30:18;;;;;;;8.48;7.28;;;9.00;99.90;;;;;;2071827;28;20080;-72
2021/12/19 04:31:18;;;;;;;12.32;7.95;;;9.00;99.90;;;;;;2071761;28;20026;-72
2021/12/19 04:32:24;;;;;;;9.48;7.95;;;9.00;99.90;;;;;;2072497;28;20362;-72
2021/12/19 04:33:27;;;;;;;9.38;8.18;;;9.00;99.90;;;;;;2071489;28;20022;-72
2021/12/19 04:34:27;;;;;;;9.63;8.32;;;9.00;99.90;;;;;;2072284;28;20021;-72
2021/12/19 04:35:32;;;;;;;9.18;8.00;;;9.00;99.90;;;;;;2072296;28;20018;-72
2021/12/19 04:36:39;;;;;;;10.90;8.43;;;8.90;99.90;;;;;;2071814;28;20112;-72
2021/12/19 04:38:28;;;;;;;10.77;8.40;;;9.00;99.90;;;;;;2072158;28;20026;-72
2021/12/19 04:40:27;;;;;;;9.85;8.30;;;8.90;99.90;;;;;;2075593;28;20084;-72
2021/12/19 04:41:51;;;;;;;10.10;8.20;;;9.00;99.90;;;;;;2076999;28;20110;-72
2021/12/19 04:53:06;;;;;;;10.85;8.82;;;8.90;99.90;;;;;;2072411;28;20042;-72
2021/12/19 04:54:49;;;;;;;10.48;9.07;;;8.90;99.90;;;;;;2071814;28;20524;-72
2021/12/19 04:57:24;;;;;;;9.57;7.90;;;8.90;99.90;;;;;;2071895;28;20026;-72
2021/12/19 05:00:41;;;;;;;9.25;8.32;;;8.90;99.90;;;;;;2072011;28;20036;-72
2021/12/19 05:02:11;;;;;;;9.13;8.18;;;8.90;99.90;;;;;;2069407;28;20025;-72
2021/12/19 05:05:57;;;;;;;11.82;9.27;;;8.90;99.90;;;;;;2072208;28;20026;-72
2021/12/19 05:14:54;;;;;;;12.45;9.25;;;8.80;99.90;;;;;;2071530;28;20030;-72
2021/12/19 05:15:55;;;;;;;11.40;9.68;;;8.80;99.90;;;;;;2070992;28;20068;-72
2021/12/19 05:17:01;;;;;;;11.18;9.05;;;8.80;99.90;;;;;;2071397;28;20631;-72
2021/12/19 05:18:06;;;;;;;11.77;9.93;;;8.80;99.90;;;;;;2071942;28;20053;-72
2021/12/19 05:19:20;;;;;;;10.90;9.45;;;8.80;99.90;;;;;;2071222;28;20087;-72
2021/12/19 05:20:24;;;;;;;12.07;10.07;;;8.80;99.90;;;;;;2071731;28;20439;-72
2021/12/19 05:21:27;;;;;;;11.50;9.80;;;8.80;99.90;;;;;;2071774;28;20018;-72
2021/12/19 05:22:30;;;;;;;11.75;10.50;;;8.80;99.90;;;;;;2071889;28;20014;-72
2021/12/19 05:25:38;;;;;;;14.73;11.65;;;8.80;99.90;;;;;;2069067;28;20038;-72
2021/12/19 05:26:42;;;;;;;14.60;10.90;;;8.80;99.90;;;;;;2071725;28;20017;-72
2021/12/19 05:27:53;;;;;;;12.80;10.65;;;8.80;99.90;;;;;;2071842;28;20024;-72
2021/12/19 05:28:54;;;;;;;13.32;11.05;;;8.80;99.90;;;;;;2071330;28;20037;-72
2021/12/19 05:29:54;;;;;;;12.93;11.00;;;8.80;99.90;;;;;;2071638;28;20116;-72
2021/12/19 05:30:56;;;;;;;12.88;10.48;;;8.70;99.90;;;;;;2071710;28;20113;-72
2021/12/19 05:31:57;;;;;;;12.00;10.18;;;8.80;99.90;;;;;;2071000;28;20033;-72
2021/12/19 05:33:00;;;;;;;12.27;10.45;;;8.80;99.90;;;;;;2071126;28;20426;-72
2021/12/19 05:34:00;;;;;;;11.80;10.48;;;8.80;99.90;;;;;;2071487;28;20490;-73
2021/12/19 05:35:01;;;;;;;14.52;10.38;;;8.80;99.90;;;;;;2071070;28;20339;-72
2021/12/19 05:44:10;;;;;;;13.05;11.13;;;8.70;99.90;;;;;;2071149;28;20061;-72
2021/12/19 05:45:26;;;;;;;10.77;8.45;;;8.60;99.90;;;;;;2071578;28;20438;-72
2021/12/19 05:46:27;;;;;;;10.02;8.95;;;8.60;99.90;;;;;;2071276;28;20026;-72
2021/12/19 05:47:27;;;;;;;9.35;8.27;;;8.60;99.90;;;;;;2072115;28;20500;-72
2021/12/19 05:48:28;;;;;;;9.50;8.25;;;8.60;99.90;;;;;;2071451;28;20020;-72
2021/12/19 05:49:29;;;;;;;9.52;7.95;;;8.70;99.90;;;;;;2076463;28;20026;-72
2021/12/19 05:50:29;;;;;;;8.60;7.28;;;8.60;99.90;;;;;;2071073;28;20410;-72
2021/12/19 05:51:30;;;;;;;8.70;7.72;;;8.70;99.90;;;;;;2063641;28;20018;-72
2021/12/19 05:52:31;;;;;;;8.43;7.50;;;8.70;99.90;;;;;;2063394;28;20452;-72
2021/12/19 05:53:32;;;;;;;9.13;7.72;;;8.70;99.90;;;;;;2063719;28;20383;-72
2021/12/19 05:54:32;;;;;;;8.63;6.60;;;8.70;99.90;;;;;;2071529;28;20117;-72
2021/12/19 05:55:33;;;;;;;7.35;6.55;;;8.70;99.90;;;;;;2071651;28;20026;-72
2021/12/19 05:56:33;;;;;;;7.38;6.63;;;8.70;99.90;;;;;;2071355;28;20482;-72
2021/12/19 05:57:34;;;;;;;8.93;7.10;;;8.70;99.90;;;;;;2071350;28;20457;-72
2021/12/19 05:58:35;;;;;;;8.57;6.78;;;8.60;99.90;;;;;;2070868;28;20037;-72
2021/12/19 05:59:36;;;;;;;9.18;7.20;;;8.70;99.90;;;;;;2070420;28;20022;-72
2021/12/19 06:00:37;;;;;;;7.18;6.22;;;8.60;99.90;;;;;;2071549;28;20022;-72
2021/12/19 06:01:38;;;;;;;7.80;6.68;;;8.60;99.90;;;;;;2070647;28;20021;-72
2021/12/19 06:02:40;;;;;;;6.50;5.90;;;8.60;99.90;;;;;;2070249;28;20645;-72
2021/12/19 06:03:41;;;;;;;6.78;5.82;;;8.60;99.90;;;;;;2071426;28;20018;-72
2021/12/19 06:04:42;;;;;;;6.93;5.97;;;8.60;99.90;;;;;;2071528;28;20037;-72
2021/12/19 06:05:42;;;;;;;6.30;5.00;;;8.60;99.90;;;;;;2071675;28;20530;-72
2021/12/19 06:06:43;;;;;;;8.20;5.65;;;8.60;99.90;;;;;;2070814;28;20022;-72
2021/12/19 06:07:43;;;;;;;5.93;4.65;;;8.60;99.90;;;;;;2070786;28;20494;-72
2021/12/19 06:08:45;;;;;;;5.32;4.30;;;8.60;99.90;;;;;;2071120;28;20064;-72
2021/12/19 06:09:45;;;;;;;6.45;4.72;;;8.50;99.90;;;;;;2069681;28;20026;-72
2021/12/19 06:10:46;;;;;;;7.03;5.15;;;8.60;99.90;;;;;;2068709;28;20038;-72
2021/12/19 06:11:46;;;;;;;5.40;4.68;;;8.50;99.90;;;;;;2071481;28;20046;-72
2021/12/19 06:12:47;;;;;;;6.28;4.60;;;8.60;99.90;;;;;;2071361;28;20030;-72
2021/12/19 06:13:48;;;;;;;4.72;4.22;;;8.60;99.90;;;;;;2071735;28;20036;-72
2021/12/19 06:14:48;;;;;;;4.70;4.20;;;8.50;99.90;;;;;;2071367;28;20761;-72
2021/12/19 06:15:52;;;;;;;6.15;4.63;;;8.50;99.90;;;;;;2078718;28;20079;-72
2021/12/19 06:16:52;;;;;;;5.80;4.32;;;8.50;99.90;;;;;;2078275;28;20595;-72
2021/12/19 06:17:53;;;;;;;4.82;4.15;;;8.50;99.90;;;;;;2071121;28;20421;-72
2021/12/19 06:18:54;;;;;;;6.40;4.70;;;8.50;99.90;;;;;;2070875;28;20036;-72
2021/12/19 06:19:54;;;;;;;6.25;4.20;;;8.60;99.90;;;;;;2070417;28;20053;-72
2021/12/19 06:20:55;;;;;;;5.90;4.65;;;8.60;99.90;;;;;;2071048;28;20633;-72
2021/12/19 06:21:56;;;;;;;4.95;4.40;;;8.60;99.90;;;;;;2071350;28;20096;-72
2021/12/19 06:22:56;;;;;;;5.45;4.70;;;8.60;99.90;;;;;;2071664;28;20485;-72